Time;durP1;ratioP1;P1;durP2;ratioP2;P2;SDS_P1;SDS_P2;PMS_P1;PMS_P2;Temp;Humidity;BMP_temperature;BMP_pressure;BME280_temperature;BME280_humidity;BME280_pressure;Samples;Min_cycle;Max_cycle;Signal;HPM_P1;HPM_P2
2022/04/12 00:01:49;;;;;;;;;;;;;;;13.39;42.62;100922.72;4919867;28;128093;-62
2022/04/12 00:04:15;;;;;;;;;;;;;;;13.38;42.60;100926.53;4919895;28;123488;-64
2022/04/12 00:06:41;;;;;;;;;;;;;;;13.36;42.66;100925.97;4919741;28;116697;-63
2022/04/12 00:09:07;;;;;;;;;;;;;;;13.34;42.87;100926.28;4917648;28;127494;-65
2022/04/12 00:11:33;;;;;;;;;;;;;;;13.30;42.59;100927.91;4919239;28;128162;-64
2022/04/12 00:13:58;;;;;;;;;;;;;;;13.29;42.65;100922.78;4917213;28;122323;-64
2022/04/12 00:16:24;;;;;;;;;;;;;;;13.27;42.75;100926.53;4905069;28;117633;-62
2022/04/12 00:19:02;;;;;;;;;;;;;;;13.25;42.77;100920.59;4919879;28;128494;-65
2022/04/12 00:21:34;;;;;;;;;;;;;;;13.25;42.67;100922.50;4923643;28;98588;-64
2022/04/12 00:24:03;;;;;;;;;;;;;;;13.22;42.67;100918.41;4923806;28;98343;-63
2022/04/12 00:26:29;;;;;;;;;;;;;;;13.19;42.62;100918.16;4923834;28;97967;-62
2022/04/12 00:28:55;;;;;;;;;;;;;;;13.17;42.75;100915.72;4922424;28;128148;-63
2022/04/12 00:31:21;;;;;;;;;;;;;;;13.16;42.68;100918.69;4920721;28;126047;-64
2022/04/12 00:33:47;;;;;;;;;;;;;;;13.15;42.87;100917.88;4923259;28;98205;-63
2022/04/12 00:36:12;;;;;;;;;;;;;;;13.13;42.63;100917.34;4922785;28;118002;-62
2022/04/12 00:38:38;;;;;;;;;;;;;;;13.12;42.56;100912.19;4922513;28;127934;-64
2022/04/12 00:41:05;;;;;;;;;;;;;;;13.10;42.71;100917.91;4922290;28;128556;-62
2022/04/12 00:43:33;;;;;;;;;;;;;;;13.10;42.65;100917.09;4921245;28;98526;-63
2022/04/12 00:46:02;;;;;;;;;;;;;;;13.07;42.82;100915.72;4937281;28;98012;-62
2022/04/12 00:48:31;;;;;;;;;;;;;;;13.05;42.79;100919.78;4923066;28;98354;-64
2022/04/12 00:50:58;;;;;;;;;;;;;;;13.04;43.06;100918.97;4922003;28;127029;-63
2022/04/12 00:53:23;;;;;;;;;;;;;;;13.02;42.87;100915.75;4922407;28;99921;-64
2022/04/12 00:55:50;;;;;;;;;;;;;;;12.97;42.87;100911.16;4926400;28;117773;-63
2022/04/12 00:58:16;;;;;;;;;;;;;;;12.97;42.75;100913.84;4930373;28;98193;-65
2022/04/12 01:00:42;;;;;;;;;;;;;;;12.95;42.79;100910.59;4921092;28;98148;-65
2022/04/12 01:03:08;;;;;;;;;;;;;;;12.95;42.85;100909.78;4922036;28;127508;-63
2022/04/12 01:05:35;;;;;;;;;;;;;;;12.93;42.81;100903.84;4923078;28;116983;-63
2022/04/12 01:08:01;;;;;;;;;;;;;;;12.92;43.06;100894.91;4919944;28;124437;-63
2022/04/12 01:10:27;;;;;;;;;;;;;;;12.89;43.01;100903.59;4922906;28;98198;-65
2022/04/12 01:12:53;;;;;;;;;;;;;;;12.87;42.81;100904.94;4937179;28;98837;-63
2022/04/12 01:15:23;;;;;;;;;;;;;;;12.85;42.84;100901.66;4923009;28;98267;-63
2022/04/12 01:17:49;;;;;;;;;;;;;;;12.84;42.87;100897.34;4921933;28;99015;-62
2022/04/12 01:20:17;;;;;;;;;;;;;;;12.82;43.15;100897.63;4922592;28;98912;-64
2022/04/12 01:23:01;;;;;;;;;;;;;;;12.80;42.86;100893.56;4921553;28;100381;-62
2022/04/12 01:25:27;;;;;;;;;;;;;;;12.78;43.02;100893.84;4921598;28;97887;-62
2022/04/12 01:27:53;;;;;;;;;;;;;;;12.75;42.96;100897.09;4915557;28;128633;-62
2022/04/12 01:30:19;;;;;;;;;;;;;;;12.74;43.31;100892.78;4900799;28;128063;-63
2022/04/12 01:32:45;;;;;;;;;;;;;;;12.72;42.87;100893.03;4918345;28;128272;-62
2022/04/12 01:35:10;;;;;;;;;;;;;;;12.71;43.18;100886.00;4919937;28;117148;-63
2022/04/12 01:37:36;;;;;;;;;;;;;;;12.69;42.86;100890.88;4922187;28;127005;-64
2022/04/12 01:40:03;;;;;;;;;;;;;;;12.70;43.14;100889.78;4922653;28;98483;-62
2022/04/12 01:42:29;;;;;;;;;;;;;;;12.69;43.23;100895.47;4922677;28;98021;-63
2022/04/12 01:44:55;;;;;;;;;;;;;;;12.68;43.05;100896.56;4923261;28;97844;-62
2022/04/12 01:47:23;;;;;;;;;;;;;;;12.67;43.18;100900.34;4921671;28;119563;-63
2022/04/12 01:49:49;;;;;;;;;;;;;;;12.66;43.14;100896.84;4907978;28;124427;-62
2022/04/12 01:52:15;;;;;;;;;;;;;;;12.65;43.23;100891.69;4930284;28;127693;-64
2022/04/12 01:54:41;;;;;;;;;;;;;;;12.64;43.25;100898.97;4922912;28;97890;-63
2022/04/12 01:57:07;;;;;;;;;;;;;;;12.60;43.30;100889.78;4920778;28;119038;-63
2022/04/12 01:59:33;;;;;;;;;;;;;;;12.59;43.25;100888.16;4921606;28;126984;-63
2022/04/12 02:01:59;;;;;;;;;;;;;;;12.59;43.23;100881.97;4915723;28;127655;-65
2022/04/12 02:04:25;;;;;;;;;;;;;;;12.57;43.07;100890.31;4920087;28;117130;-63
2022/04/12 02:06:51;;;;;;;;;;;;;;;12.57;43.32;100893.03;4922083;28;98282;-63
2022/04/12 02:09:16;;;;;;;;;;;;;;;12.55;43.07;100889.78;4935936;28;127251;-64
2022/04/12 02:11:42;;;;;;;;;;;;;;;12.55;43.25;100891.69;4919913;28;127423;-64
2022/04/12 02:14:08;;;;;;;;;;;;;;;12.52;43.31;100893.84;4921000;28;118147;-64
2022/04/12 02:16:35;;;;;;;;;;;;;;;12.51;43.09;100902.22;4920152;28;128180;-64
2022/04/12 02:19:00;;;;;;;;;;;;;;;12.48;43.12;100898.16;4921207;28;127277;-63
2022/04/12 02:21:26;;;;;;;;;;;;;;;12.47;43.08;100901.97;4920741;28;126552;-63
2022/04/12 02:23:52;;;;;;;;;;;;;;;12.46;43.27;100902.25;4922045;28;97949;-63
2022/04/12 02:26:18;;;;;;;;;;;;;;;12.44;43.40;100899.78;4920583;28;128125;-63
2022/04/12 02:28:44;;;;;;;;;;;;;;;12.44;43.39;100898.97;4920510;28;127725;-65
2022/04/12 02:31:10;;;;;;;;;;;;;;;12.41;43.40;100894.91;4920495;28;127321;-63
2022/04/12 02:33:36;;;;;;;;;;;;;;;12.40;43.43;100901.41;4921843;28;117013;-64
2022/04/12 02:36:02;;;;;;;;;;;;;;;12.39;43.48;100897.09;4919819;28;127976;-63
2022/04/12 02:38:28;;;;;;;;;;;;;;;12.38;43.42;100903.59;4921157;28;98475;-64
2022/04/12 02:40:54;;;;;;;;;;;;;;;12.38;43.13;100910.84;4934650;28;128542;-63
2022/04/12 02:43:20;;;;;;;;;;;;;;;12.36;43.43;100899.50;4920489;28;117648;-63
2022/04/12 02:45:46;;;;;;;;;;;;;;;12.34;43.55;100902.50;4920834;28;126988;-64
2022/04/12 02:48:12;;;;;;;;;;;;;;;12.33;43.52;100900.03;4921683;28;98828;-64
2022/04/12 02:50:38;;;;;;;;;;;;;;;12.32;43.26;100899.22;4935208;28;127453;-64
2022/04/12 02:53:04;;;;;;;;;;;;;;;12.30;43.40;100901.41;4920069;28;117130;-64
2022/04/12 02:55:30;;;;;;;;;;;;;;;12.28;43.51;100900.84;4924218;28;98562;-64
2022/04/12 02:57:56;;;;;;;;;;;;;;;12.27;43.42;100896.53;4921059;28;114103;-63
2022/04/12 03:00:22;;;;;;;;;;;;;;;12.25;43.67;100902.19;4921758;28;107854;-64
2022/04/12 03:02:48;;;;;;;;;;;;;;;12.23;43.68;100896.25;4899718;28;115493;-63
2022/04/12 03:05:14;;;;;;;;;;;;;;;12.24;43.54;100907.88;4915787;28;128208;-62
2022/04/12 03:07:40;;;;;;;;;;;;;;;12.22;43.70;100902.75;4899292;28;127640;-62
2022/04/12 03:10:06;;;;;;;;;;;;;;;12.21;43.55;100903.81;4916089;28;126956;-63
2022/04/12 03:12:32;;;;;;;;;;;;;;;12.20;43.40;100906.78;4920320;28;105314;-63
2022/04/12 03:14:59;;;;;;;;;;;;;;;12.18;43.71;100904.34;4920414;28;125919;-64
2022/04/12 03:17:25;;;;;;;;;;;;;;;12.18;43.38;100909.75;4921306;28;98543;-62
2022/04/12 03:19:51;;;;;;;;;;;;;;;12.17;43.48;100904.59;4920481;28;127508;-64
2022/04/12 03:22:17;;;;;;;;;;;;;;;12.16;43.51;100903.00;4920862;28;98300;-62
2022/04/12 03:24:45;;;;;;;;;;;;;;;12.14;43.76;100902.44;4920873;28;127079;-62
2022/04/12 03:27:11;;;;;;;;;;;;;;;12.13;43.87;100907.03;4920316;28;98886;-63
2022/04/12 03:29:36;;;;;;;;;;;;;;;12.13;43.82;100903.53;4922048;28;97799;-62
2022/04/12 03:32:03;;;;;;;;;;;;;;;12.12;43.68;100896.50;4920298;28;117686;-65
2022/04/12 03:34:28;;;;;;;;;;;;;;;12.11;43.59;100900.28;4920129;28;122689;-63
2022/04/12 03:36:55;;;;;;;;;;;;;;;12.10;43.68;100906.75;4919045;28;127141;-64
2022/04/12 03:39:21;;;;;;;;;;;;;;;12.10;43.97;100904.03;4921217;28;98007;-63
2022/04/12 03:41:47;;;;;;;;;;;;;;;12.08;43.74;100907.03;4913678;28;97885;-64
2022/04/12 03:44:14;;;;;;;;;;;;;;;12.06;43.67;100905.66;4901827;28;98075;-64
2022/04/12 03:46:40;;;;;;;;;;;;;;;12.05;43.85;100904.84;4910206;28;98210;-64
2022/04/12 03:49:06;;;;;;;;;;;;;;;12.03;43.74;100901.63;4923367;28;109146;-62
2022/04/12 03:51:31;;;;;;;;;;;;;;;12.02;43.41;100905.38;4922881;28;117337;-64
2022/04/12 03:53:57;;;;;;;;;;;;;;;12.00;44.03;100900.25;4923051;28;128557;-63
2022/04/12 03:56:24;;;;;;;;;;;;;;;11.99;43.76;100901.34;4926459;28;127855;-63
2022/04/12 03:58:49;;;;;;;;;;;;;;;12.00;43.70;100907.53;4925018;28;98512;-62
2022/04/12 04:01:15;;;;;;;;;;;;;;;11.99;44.04;100905.94;4924555;28;98063;-64
2022/04/12 04:03:41;;;;;;;;;;;;;;;11.97;43.72;100908.88;4923175;28;127152;-64
2022/04/12 04:06:07;;;;;;;;;;;;;;;11.97;43.54;100906.19;4923830;28;99011;-64
2022/04/12 04:08:33;;;;;;;;;;;;;;;11.96;43.84;100914.56;4911609;28;128668;-64
2022/04/12 04:10:59;;;;;;;;;;;;;;;11.94;43.96;100912.09;4923808;28;98294;-63
2022/04/12 04:13:26;;;;;;;;;;;;;;;11.96;43.71;100911.84;4922544;28;127708;-62
2022/04/12 04:15:53;;;;;;;;;;;;;;;11.94;43.66;100914.81;4924456;28;98289;-64
2022/04/12 04:18:18;;;;;;;;;;;;;;;11.94;43.74;100914.00;4923549;28;98200;-62
2022/04/12 04:20:44;;;;;;;;;;;;;;;11.92;44.17;100913.47;4923216;28;117935;-65
2022/04/12 04:23:10;;;;;;;;;;;;;;;11.92;43.73;100911.56;4922788;28;127598;-64
2022/04/12 04:25:38;;;;;;;;;;;;;;;11.93;43.60;100913.19;4923860;28;127418;-62
2022/04/12 04:28:05;;;;;;;;;;;;;;;11.92;44.17;100919.69;4923349;28;97723;-63
2022/04/12 04:30:33;;;;;;;;;;;;;;;11.92;43.79;100913.47;4924348;28;97937;-65
2022/04/12 04:32:59;;;;;;;;;;;;;;;11.92;43.96;100916.16;4922977;28;98765;-63
2022/04/12 04:35:25;;;;;;;;;;;;;;;11.93;44.12;100912.38;4923819;28;101844;-64
2022/04/12 04:37:51;;;;;;;;;;;;;;;11.93;43.98;100920.50;4938112;28;97946;-65
2022/04/12 04:40:18;;;;;;;;;;;;;;;11.94;43.67;100914.81;4923242;28;108006;-62
2022/04/12 04:42:45;;;;;;;;;;;;;;;11.96;44.09;100917.25;4922315;28;98849;-63
2022/04/12 04:45:11;;;;;;;;;;;;;;;11.98;43.98;100925.91;4923850;28;98978;-63
2022/04/12 04:47:51;;;;;;;;;;;;;;;12.01;44.27;100919.97;4923005;28;115249;-64
2022/04/12 04:50:21;;;;;;;;;;;;;;;12.03;44.09;100920.53;4922155;28;97786;-63
2022/04/12 04:52:47;;;;;;;;;;;;;;;12.07;44.04;100923.50;4918180;28;99198;-64
2022/04/12 04:55:13;;;;;;;;;;;;;;;12.09;44.32;100922.16;4922781;28;126100;-63
2022/04/12 04:57:40;;;;;;;;;;;;;;;12.10;44.35;100921.06;4924514;28;98446;-64
2022/04/12 05:00:07;;;;;;;;;;;;;;;12.10;44.00;100923.78;4923133;28;97875;-64
2022/04/12 05:02:34;;;;;;;;;;;;;;;12.08;44.16;100928.66;4920794;28;125560;-63
2022/04/12 05:05:01;;;;;;;;;;;;;;;12.07;44.50;100935.13;4923105;28;99030;-64
2022/04/12 05:07:27;;;;;;;;;;;;;;;12.06;44.04;100938.88;4921003;28;126272;-63
2022/04/12 05:09:53;;;;;;;;;;;;;;;12.06;44.65;100935.38;4923039;28;117535;-64
2022/04/12 05:12:19;;;;;;;;;;;;;;;12.04;44.40;100944.56;4922070;28;128639;-63
2022/04/12 05:14:45;;;;;;;;;;;;;;;12.04;44.17;100943.75;4936096;28;126593;-63
2022/04/12 05:17:11;;;;;;;;;;;;;;;12.03;44.52;100942.97;4921562;28;127640;-64
2022/04/12 05:19:37;;;;;;;;;;;;;;;12.03;44.41;100945.66;4922216;28;116663;-62
2022/04/12 05:22:03;;;;;;;;;;;;;;;12.04;44.75;100944.56;4921803;28;129301;-62
2022/04/12 05:24:28;;;;;;;;;;;;;;;12.07;44.83;100932.44;4918066;28;125424;-63
2022/04/12 05:26:54;;;;;;;;;;;;;;;12.12;44.52;100934.34;4918115;28;126770;-63
2022/04/12 05:29:20;;;;;;;;;;;;;;;12.16;45.20;100935.41;4919054;28;117898;-64
2022/04/12 05:31:46;;;;;;;;;;;;;;;12.19;44.86;100927.59;4914361;28;128389;-63
2022/04/12 05:34:12;;;;;;;;;;;;;;;12.24;45.11;100940.31;4916408;28;126357;-65
2022/04/12 05:36:38;;;;;;;;;;;;;;;12.30;44.58;100928.44;4918614;28;127758;-65
2022/04/12 05:39:04;;;;;;;;;;;;;;;12.39;44.79;100936.81;4918032;28;116876;-65
2022/04/12 05:41:30;;;;;;;;;;;;;;;12.47;45.19;100930.88;4917701;28;128574;-64
2022/04/12 05:43:56;;;;;;;;;;;;;;;12.55;45.06;100933.06;4916970;28;128192;-64
2022/04/12 05:46:21;;;;;;;;;;;;;;;12.64;44.94;100939.56;4918049;28;120345;-65
2022/04/12 05:48:47;;;;;;;;;;;;;;;12.73;44.96;100935.25;4900135;28;116820;-64
2022/04/12 05:51:13;;;;;;;;;;;;;;;12.85;45.00;100939.56;4932472;28;127469;-64
2022/04/12 05:53:39;;;;;;;;;;;;;;;12.94;44.86;100938.75;4916705;28;128275;-64
2022/04/12 05:56:05;;;;;;;;;;;;;;;13.06;44.86;100934.97;4920744;28;98478;-63
2022/04/12 05:58:35;;;;;;;;;;;;;;;13.11;44.97;100943.88;4918959;28;98143;-63
2022/04/12 06:01:01;;;;;;;;;;;;;;;13.15;45.01;100947.66;4918905;28;99181;-64
2022/04/12 06:03:27;;;;;;;;;;;;;;;13.25;44.95;100950.38;4917869;28;118000;-63
2022/04/12 06:05:53;;;;;;;;;;;;;;;13.33;44.91;100943.59;4917812;28;105944;-66
2022/04/12 06:08:19;;;;;;;;;;;;;;;13.43;44.90;100950.88;4918098;28;98082;-63
2022/04/12 06:10:45;;;;;;;;;;;;;;;13.50;45.03;100952.22;4916883;28;128165;-63
2022/04/12 06:13:11;;;;;;;;;;;;;;;13.59;44.95;100955.16;4917697;28;116837;-63
2022/04/12 06:15:37;;;;;;;;;;;;;;;13.70;44.65;100951.34;4934921;28;123874;-63
2022/04/12 06:18:03;;;;;;;;;;;;;;;13.86;44.73;100956.72;4918525;28;98163;-64
2022/04/12 06:20:29;;;;;;;;;;;;;;;13.99;44.65;100956.94;4917044;28;124858;-63
2022/04/12 06:22:55;;;;;;;;;;;;;;;14.14;44.71;100957.94;4913814;28;128094;-63
2022/04/12 06:25:21;;;;;;;;;;;;;;;14.30;44.45;100958.66;4916595;28;97967;-65
2022/04/12 06:27:50;;;;;;;;;;;;;;;14.45;44.39;100966.72;4918183;28;97922;-65
2022/04/12 06:30:18;;;;;;;;;;;;;;;14.67;43.88;100969.84;4917615;28;98649;-63
2022/04/12 06:32:44;;;;;;;;;;;;;;;14.96;43.50;100977.22;4908880;28;125749;-65
2022/04/12 06:35:10;;;;;;;;;;;;;;;15.32;43.64;100977.69;4916630;28;127594;-63
2022/04/12 06:37:36;;;;;;;;;;;;;;;15.82;42.90;100972.06;4916956;28;98447;-65
2022/04/12 06:40:02;;;;;;;;;;;;;;;16.15;42.67;100971.09;4917190;28;119229;-63
2022/04/12 06:42:28;;;;;;;;;;;;;;;16.68;42.14;100970.06;4932351;28;98708;-63
2022/04/12 06:44:54;;;;;;;;;;;;;;;17.38;41.27;100974.63;4917295;28;98166;-65
2022/04/12 06:47:20;;;;;;;;;;;;;;;18.18;40.20;100970.59;4917839;28;98038;-63
2022/04/12 06:49:47;;;;;;;;;;;;;;;18.32;40.06;100974.13;4916954;28;127671;-64
2022/04/12 06:52:13;;;;;;;;;;;;;;;18.21;40.49;100983.63;4917011;28;98346;-64
2022/04/12 06:54:39;;;;;;;;;;;;;;;18.24;40.48;100977.59;4915375;28;103980;-63
2022/04/12 06:57:05;;;;;;;;;;;;;;;18.24;40.64;100972.13;4909290;28;118667;-63
2022/04/12 06:59:32;;;;;;;;;;;;;;;18.33;40.58;100980.38;4917154;28;99181;-64
2022/04/12 07:01:58;;;;;;;;;;;;;;;18.42;40.31;100975.81;4916844;28;98458;-64
2022/04/12 07:04:24;;;;;;;;;;;;;;;18.47;40.37;100972.97;4917979;28;125007;-63
2022/04/12 07:06:50;;;;;;;;;;;;;;;18.50;40.49;100977.00;4917544;28;103552;-63
2022/04/12 07:09:20;;;;;;;;;;;;;;;18.48;40.56;100974.59;4917372;28;98368;-63
2022/04/12 07:11:46;;;;;;;;;;;;;;;18.45;40.49;100972.47;4915364;28;98912;-62
2022/04/12 07:14:12;;;;;;;;;;;;;;;18.48;40.58;100962.88;4916432;28;115672;-64
2022/04/12 07:16:38;;;;;;;;;;;;;;;18.53;40.41;100970.94;4916320;28;109519;-63
2022/04/12 07:19:04;;;;;;;;;;;;;;;18.56;40.45;100965.66;4916434;28;128070;-64
2022/04/12 07:21:31;;;;;;;;;;;;;;;18.62;40.44;100963.59;4907686;28;98559;-63
2022/04/12 07:23:59;;;;;;;;;;;;;;;18.69;40.46;100958.53;4915506;28;98531;-64
2022/04/12 07:26:25;;;;;;;;;;;;;;;18.82;39.91;100960.44;4917655;28;98031;-64
2022/04/12 07:28:51;;;;;;;;;;;;;;;18.99;40.13;100964.41;4916138;28;125387;-63
2022/04/12 07:31:17;;;;;;;;;;;;;;;19.19;40.09;100963.88;4915685;28;128708;-63
2022/04/12 07:33:43;;;;;;;;;;;;;;;19.45;40.24;100963.97;4915782;28;127406;-63
2022/04/12 07:36:09;;;;;;;;;;;;;;;19.66;40.29;100971.69;4917336;28;97984;-64
2022/04/12 07:38:35;;;;;;;;;;;;;;;19.86;40.04;100963.69;4916372;28;126352;-64
2022/04/12 07:41:01;;;;;;;;;;;;;;;20.07;40.27;100961.16;4915954;28;128338;-66
2022/04/12 07:43:27;;;;;;;;;;;;;;;20.35;40.11;100961.66;4915326;28;125303;-63
2022/04/12 07:45:52;;;;;;;;;;;;;;;20.59;40.27;100961.25;4916549;28;97947;-63
2022/04/12 07:48:18;;;;;;;;;;;;;;;20.90;40.04;100964.91;4916251;28;124103;-63
2022/04/12 07:50:44;;;;;;;;;;;;;;;21.18;40.06;100957.94;4916100;28;128246;-63
2022/04/12 07:53:10;;;;;;;;;;;;;;;21.53;40.00;100955.06;4916069;28;128153;-63
2022/04/12 07:55:36;;;;;;;;;;;;;;;21.91;39.79;100960.53;4919156;28;117664;-64
2022/04/12 07:58:02;;;;;;;;;;;;;;;22.41;39.49;100958.94;4916448;28;127952;-65
2022/04/12 08:00:28;;;;;;;;;;;;;;;22.97;39.30;100960.22;4916197;28;128326;-65
2022/04/12 08:02:54;;;;;;;;;;;;;;;23.77;38.62;100964.47;4918132;28;123634;-63
2022/04/12 08:05:20;;;;;;;;;;;;;;;24.62;38.12;100959.97;4917372;28;116090;-65
2022/04/12 08:07:48;;;;;;;;;;;;;;;25.47;37.50;100964.25;4930111;28;128257;-64
2022/04/12 08:10:17;;;;;;;;;;;;;;;26.50;36.83;100967.81;4923796;28;98739;-65
2022/04/12 08:12:44;;;;;;;;;;;;;;;27.39;36.36;100981.38;4918471;28;98585;-64
2022/04/12 08:15:10;;;;;;;;;;;;;;;28.25;35.91;100982.69;4916646;28;98526;-64
2022/04/12 08:17:36;;;;;;;;;;;;;;;29.32;35.15;100969.31;4930637;28;108327;-63
2022/04/12 08:20:03;;;;;;;;;;;;;;;30.48;34.55;100973.28;4931885;28;111342;-63
2022/04/12 08:22:29;;;;;;;;;;;;;;;31.49;33.64;100974.31;4930499;28;98249;-63
2022/04/12 08:24:54;;;;;;;;;;;;;;;32.46;33.06;100978.56;4916570;28;116856;-64
2022/04/12 08:27:20;;;;;;;;;;;;;;;33.49;32.18;100972.75;4915672;28;127205;-64
2022/04/12 08:29:46;;;;;;;;;;;;;;;34.65;31.73;100971.91;4916610;28;127482;-64
2022/04/12 08:32:12;;;;;;;;;;;;;;;35.64;30.80;100969.56;4915410;28;127183;-64
2022/04/12 08:34:38;;;;;;;;;;;;;;;36.32;30.62;100968.31;4933055;28;97887;-64
2022/04/12 08:37:05;;;;;;;;;;;;;;;36.97;30.27;100959.28;4918027;28;128016;-64
2022/04/12 08:39:31;;;;;;;;;;;;;;;37.73;29.38;100977.88;4920639;28;98207;-64
2022/04/12 08:41:58;;;;;;;;;;;;;;;38.48;29.18;100967.38;4914542;28;98493;-64
2022/04/12 08:44:24;;;;;;;;;;;;;;;38.87;28.92;100969.00;4934333;28;98069;-65
2022/04/12 08:46:50;;;;;;;;;;;;;;;39.25;27.98;100960.50;4926140;28;98846;-64
2022/04/12 08:49:16;;;;;;;;;;;;;;;39.59;27.41;100961.00;4919534;28;99037;-64
2022/04/12 08:51:43;;;;;;;;;;;;;;;39.67;26.88;100951.88;4918448;28;126830;-65
2022/04/12 08:54:10;;;;;;;;;;;;;;;39.83;26.21;100952.94;4934262;28;98070;-64
2022/04/12 08:56:36;;;;;;;;;;;;;;;40.06;25.39;100949.66;4921738;28;98963;-64
2022/04/12 08:59:02;;;;;;;;;;;;;;;40.10;24.94;100946.69;4919077;28;127214;-64
2022/04/12 09:01:28;;;;;;;;;;;;;;;39.92;24.19;100939.66;4933812;28;124038;-65
2022/04/12 09:03:54;;;;;;;;;;;;;;;39.87;23.72;100943.09;4918999;28;105311;-64
2022/04/12 09:06:20;;;;;;;;;;;;;;;39.22;23.84;100926.78;4918564;28;127660;-65
2022/04/12 09:08:46;;;;;;;;;;;;;;;38.24;23.67;100921.81;4916843;28;98862;-64
2022/04/12 09:11:13;;;;;;;;;;;;;;;37.35;24.19;100928.66;4933811;28;116311;-65
2022/04/12 09:13:40;;;;;;;;;;;;;;;36.93;23.82;100924.84;4918052;28;116645;-64
2022/04/12 09:16:09;;;;;;;;;;;;;;;36.73;23.53;100921.34;4919159;28;98200;-63
2022/04/12 09:18:39;;;;;;;;;;;;;;;36.31;23.46;100926.63;4917879;28;125215;-63
2022/04/12 09:21:11;;;;;;;;;;;;;;;35.95;23.49;100915.34;4921139;28;98431;-64
2022/04/12 09:23:36;;;;;;;;;;;;;;;35.93;23.51;100901.78;4919268;28;98310;-63
2022/04/12 09:26:02;;;;;;;;;;;;;;;35.98;23.22;100906.13;4917704;28;128577;-62
2022/04/12 09:28:41;;;;;;;;;;;;;;;35.89;22.92;100898.25;4917592;28;129274;-63
2022/04/12 09:31:14;;;;;;;;;;;;;;;36.23;22.78;100902.78;4918203;28;126872;-63
2022/04/12 09:33:40;;;;;;;;;;;;;;;36.77;22.29;100903.16;4919518;28;98055;-63
2022/04/12 09:36:06;;;;;;;;;;;;;;;37.68;21.59;100908.13;4918347;28;99039;-62
2022/04/12 09:38:33;;;;;;;;;;;;;;;38.14;21.23;100901.22;4918533;28;99142;-63
2022/04/12 09:41:25;;;;;;;;;;;;;;;39.33;20.48;100912.38;4918349;28;98295;-63
2022/04/12 09:44:05;;;;;;;;;;;;;;;40.18;20.17;100903.66;4919242;28;97867;-64
2022/04/12 09:46:31;;;;;;;;;;;;;;;40.94;19.74;100910.72;4918239;28;97991;-63
2022/04/12 09:48:57;;;;;;;;;;;;;;;41.76;19.42;100909.25;4917377;28;126027;-64
2022/04/12 09:51:23;;;;;;;;;;;;;;;42.55;18.96;100902.78;4917820;28;128694;-63
2022/04/12 09:53:50;;;;;;;;;;;;;;;43.07;18.79;100894.97;4917933;28;97910;-63
2022/04/12 09:56:29;;;;;;;;;;;;;;;43.31;18.37;100889.28;4920395;28;122990;-63
2022/04/12 09:58:59;;;;;;;;;;;;;;;43.29;18.62;100886.94;4918926;28;98396;-63
2022/04/12 10:01:25;;;;;;;;;;;;;;;43.47;17.84;100876.72;4918319;28;98019;-64
2022/04/12 10:04:01;;;;;;;;;;;;;;;43.53;17.89;100877.63;4918129;28;103329;-63
2022/04/12 10:06:28;;;;;;;;;;;;;;;43.33;18.22;100867.69;4917102;28;99360;-63
2022/04/12 10:08:55;;;;;;;;;;;;;;;43.30;18.01;100865.03;4918653;28;98187;-63
2022/04/12 10:11:21;;;;;;;;;;;;;;;43.36;17.87;100861.03;4932547;28;117520;-64
2022/04/12 10:13:48;;;;;;;;;;;;;;;43.55;18.06;100853.19;4917550;28;105583;-63
2022/04/12 10:16:17;;;;;;;;;;;;;;;43.97;17.29;100863.47;4916886;28;99035;-63
2022/04/12 10:18:44;;;;;;;;;;;;;;;44.27;16.91;100860.63;4918443;28;98545;-63
2022/04/12 10:21:13;;;;;;;;;;;;;;;44.54;16.91;100865.94;4924236;28;98852;-63
2022/04/12 10:23:41;;;;;;;;;;;;;;;44.75;16.82;100844.03;4918610;28;97922;-63
2022/04/12 10:26:07;;;;;;;;;;;;;;;44.68;16.90;100849.34;4916011;28;99259;-64
2022/04/12 10:28:33;;;;;;;;;;;;;;;44.85;16.81;100844.69;4914076;28;119128;-63
2022/04/12 10:31:04;;;;;;;;;;;;;;;44.67;16.85;100833.59;4931927;28;128229;-63
2022/04/12 10:33:30;;;;;;;;;;;;;;;44.45;16.58;100825.50;4912809;28;98241;-64
2022/04/12 10:35:56;;;;;;;;;;;;;;;43.99;16.84;100817.59;4918044;28;98194;-63
2022/04/12 10:38:23;;;;;;;;;;;;;;;43.42;16.87;100820.66;4918593;28;98659;-64
2022/04/12 10:40:52;;;;;;;;;;;;;;;43.19;16.83;100817.41;4917681;28;98817;-63
2022/04/12 10:43:44;;;;;;;;;;;;;;;42.86;16.97;100809.00;4918022;28;110516;-65
2022/04/12 10:46:14;;;;;;;;;;;;;;;42.75;17.42;100809.53;4915725;28;98055;-63
2022/04/12 10:48:40;;;;;;;;;;;;;;;42.62;16.89;100811.81;4917703;28;99273;-63
2022/04/12 10:51:06;;;;;;;;;;;;;;;42.29;17.30;100821.13;4917583;28;97860;-63
2022/04/12 10:53:37;;;;;;;;;;;;;;;41.70;17.25;100817.81;4933067;28;98150;-63
2022/04/12 10:56:14;;;;;;;;;;;;;;;41.00;17.33;100802.78;4921533;28;99284;-63
2022/04/12 10:58:40;;;;;;;;;;;;;;;40.28;17.64;100804.91;4917658;28;123017;-63
2022/04/12 11:01:09;;;;;;;;;;;;;;;39.58;17.64;100796.69;4917578;28;98205;-63
2022/04/12 11:03:41;;;;;;;;;;;;;;;38.99;18.27;100801.22;4917298;28;116950;-63
2022/04/12 11:06:23;;;;;;;;;;;;;;;38.40;17.81;100792.31;4917788;28;97955;-63
2022/04/12 11:08:51;;;;;;;;;;;;;;;37.84;18.44;100792.78;4932067;28;98436;-63
2022/04/12 11:11:21;;;;;;;;;;;;;;;37.55;18.12;100787.22;4932018;28;98851;-63
2022/04/12 11:13:49;;;;;;;;;;;;;;;37.42;18.09;100780.81;4918041;28;98090;-63
2022/04/12 11:16:16;;;;;;;;;;;;;;;37.29;18.30;100773.06;4917759;28;99451;-63
2022/04/12 11:18:56;;;;;;;;;;;;;;;37.25;18.15;100783.59;4930240;28;105533;-62
2022/04/12 11:21:22;;;;;;;;;;;;;;;37.47;18.13;100781.03;4921684;28;98235;-62
2022/04/12 11:23:57;;;;;;;;;;;;;;;37.46;18.33;100781.47;4917843;28;98396;-63
2022/04/12 11:26:37;;;;;;;;;;;;;;;37.40;17.99;100777.59;4918051;28;97771;-63
2022/04/12 11:29:14;;;;;;;;;;;;;;;37.07;18.06;100778.50;4917205;28;98448;-63
2022/04/12 11:31:47;;;;;;;;;;;;;;;36.55;18.64;100782.22;4917554;28;97897;-63
2022/04/12 11:34:13;;;;;;;;;;;;;;;36.16;18.69;100787.94;4917651;28;97813;-63
2022/04/12 11:36:42;;;;;;;;;;;;;;;35.64;18.86;100787.41;4931000;28;121542;-64
2022/04/12 11:39:08;;;;;;;;;;;;;;;35.29;19.10;100782.50;4915281;28;123207;-63
2022/04/12 11:41:34;;;;;;;;;;;;;;;35.15;19.12;100780.78;4917294;28;98421;-63
2022/04/12 11:44:04;;;;;;;;;;;;;;;34.89;19.35;100783.19;4917257;28;98611;-63
2022/04/12 11:46:33;;;;;;;;;;;;;;;34.87;19.29;100780.03;4916785;28;111108;-63
2022/04/12 11:49:06;;;;;;;;;;;;;;;34.80;19.33;100788.56;4917732;28;98369;-63
2022/04/12 11:51:47;;;;;;;;;;;;;;;34.63;18.95;100781.28;4917312;28;97716;-63
2022/04/12 11:54:24;;;;;;;;;;;;;;;34.33;19.09;100776.50;4917641;28;98027;-63
2022/04/12 11:56:59;;;;;;;;;;;;;;;34.25;19.51;100773.03;4916911;28;98786;-63
2022/04/12 11:59:26;;;;;;;;;;;;;;;34.31;19.08;100778.94;4932477;28;98395;-63
2022/04/12 12:01:53;;;;;;;;;;;;;;;34.25;19.44;100775.03;4917168;28;98512;-63
2022/04/12 12:04:19;;;;;;;;;;;;;;;34.07;19.20;100775.28;4916823;28;98160;-63
2022/04/12 12:06:57;;;;;;;;;;;;;;;34.07;19.60;100769.69;4916996;28;98164;-63
2022/04/12 12:09:23;;;;;;;;;;;;;;;34.12;19.69;100772.81;4918086;28;99570;-63
2022/04/12 12:11:50;;;;;;;;;;;;;;;34.18;19.59;100771.13;4920024;28;98275;-63
2022/04/12 12:14:16;;;;;;;;;;;;;;;34.23;19.79;100769.84;4928795;28;98033;-63
2022/04/12 12:16:41;;;;;;;;;;;;;;;34.22;19.46;100767.50;4919126;28;112363;-63
2022/04/12 12:19:14;;;;;;;;;;;;;;;34.19;19.64;100758.75;4920930;28;100338;-63
2022/04/12 12:21:44;;;;;;;;;;;;;;;34.14;19.21;100767.59;4920213;28;98388;-63
2022/04/12 12:24:10;;;;;;;;;;;;;;;34.11;19.72;100764.84;4921167;28;98031;-63
2022/04/12 12:26:36;;;;;;;;;;;;;;;34.04;19.37;100760.16;4919913;28;97946;-63
2022/04/12 12:29:02;;;;;;;;;;;;;;;34.04;19.39;100762.19;4920037;28;101150;-63
2022/04/12 12:31:28;;;;;;;;;;;;;;;33.94;19.28;100759.06;4917589;28;127316;-63